Time;durP1;ratioP1;P1;durP2;ratioP2;P2;SDS_P1;SDS_P2;PMS_P1;PMS_P2;Temp;Humidity;BMP_temperature;BMP_pressure;BME280_temperature;BME280_humidity;BME280_pressure;Samples;Min_cycle;Max_cycle;Signal;HPM_P1;HPM_P2
2021/10/01 00:02:32;;;;;;;3.35;1.40;;;;;;;12.61;100.00;101903.06;6363912;28;20219;-72
2021/10/01 00:05:39;;;;;;;6.22;1.23;;;;;;;12.69;100.00;101900.13;6364330;28;20192;-72
2021/10/01 00:08:43;;;;;;;4.03;1.20;;;;;;;12.72;100.00;101899.72;6364745;28;20189;-72
2021/10/01 00:11:51;;;;;;;0.90;0.90;;;;;;;12.82;100.00;101894.69;6364357;28;20250;-73
2021/10/01 00:14:57;;;;;;;7.03;1.20;;;;;;;12.76;100.00;101901.00;6364179;28;20217;-72
2021/10/01 00:18:02;;;;;;;2.40;1.30;;;;;;;12.77;100.00;101891.72;6382502;27;20250;-73
2021/10/01 00:21:07;;;;;;;2.78;1.20;;;;;;;12.82;100.00;101902.91;6389907;27;20296;-73
2021/10/01 00:24:12;;;;;;;1.75;1.17;;;;;;;12.71;100.00;101904.34;6388705;27;20193;-72
2021/10/01 00:27:17;;;;;;;1.60;1.10;;;;;;;12.84;100.00;101904.38;6388625;27;20552;-72
2021/10/01 00:30:23;;;;;;;2.83;1.33;;;;;;;12.77;100.00;101905.41;6389746;27;20220;-72
2021/10/01 00:33:28;;;;;;;1.45;1.05;;;;;;;12.78;100.00;101905.22;6389414;27;20181;-72
2021/10/01 00:36:32;;;;;;;2.10;1.20;;;;;;;12.89;100.00;101906.53;6405467;27;20197;-72
2021/10/01 00:39:37;;;;;;;3.42;1.40;;;;;;;12.87;100.00;101908.63;6370396;27;20204;-72
2021/10/01 00:42:41;;;;;;;5.90;1.30;;;;;;;12.79;100.00;101908.81;6404031;27;20362;-72
2021/10/01 00:45:46;;;;;;;2.25;1.10;;;;;;;12.83;100.00;101913.69;6370282;27;20387;-72
2021/10/01 00:48:51;;;;;;;2.97;1.20;;;;;;;12.97;99.40;101920.00;6388058;27;20416;-72
2021/10/01 00:51:55;;;;;;;1.20;1.15;;;;;;;12.90;100.00;101919.16;6387926;27;20218;-72
2021/10/01 00:55:01;;;;;;;2.30;1.00;;;;;;;12.92;100.00;101923.38;6369777;27;20431;-73
2021/10/01 00:58:05;;;;;;;4.18;1.33;;;;;;;12.91;99.85;101915.38;6370376;27;20587;-72
2021/10/01 01:01:11;;;;;;;3.05;1.58;;;;;;;12.93;99.20;101914.13;6403910;27;20205;-72
2021/10/01 01:04:19;;;;;;;2.78;1.30;;;;;;;12.90;98.60;101914.53;6369864;27;20364;-72
2021/10/01 01:07:32;;;;;;;1.48;1.20;;;;;;;12.93;98.29;101918.75;6404087;27;20229;-72
2021/10/01 01:10:44;;;;;;;1.38;1.08;;;;;;;13.00;96.42;101919.59;6370346;27;20205;-72
2021/10/01 01:13:57;;;;;;;4.80;1.50;;;;;;;12.99;96.91;101917.94;6370262;27;20219;-72
2021/10/01 01:17:07;;;;;;;2.72;1.10;;;;;;;12.81;99.04;101928.63;6369867;27;20421;-72
2021/10/01 01:20:18;;;;;;;7.78;1.40;;;;;;;12.88;98.06;101918.53;6382917;27;20186;-72
2021/10/01 01:23:43;;;;;;;1.30;1.20;;;;;;;12.90;97.27;101919.16;6318299;28;20242;-72
2021/10/01 01:27:14;;;;;;;5.10;1.58;;;;;;;12.80;97.78;101930.50;6319186;28;20237;-72
2021/10/01 01:30:21;;;;;;;2.60;1.20;;;;;;;12.83;96.73;101924.63;6318994;28;20198;-72
2021/10/01 01:33:40;;;;;;;5.00;1.10;;;;;;;12.90;95.99;101919.16;6353070;28;20205;-72
2021/10/01 01:36:48;;;;;;;7.78;1.30;;;;;;;12.81;96.57;101939.59;6337147;28;20210;-72
2021/10/01 01:39:56;;;;;;;1.17;1.17;;;;;;;12.93;95.53;101929.72;6318242;28;20198;-72
2021/10/01 01:43:03;;;;;;;2.47;0.80;;;;;;;12.76;96.43;101933.88;6318991;28;20509;-73
2021/10/01 01:46:08;;;;;;;2.25;1.20;;;;;;;12.87;94.64;101938.75;6319321;28;20234;-72
2021/10/01 01:49:16;;;;;;;1.40;1.02;;;;;;;12.79;95.59;101939.75;6319365;28;20240;-73
2021/10/01 01:52:21;;;;;;;2.72;1.40;;;;;;;12.68;96.02;101937.63;6352006;28;20509;-72
2021/10/01 01:55:26;;;;;;;6.55;1.35;;;;;;;12.62;96.74;101948.53;6318517;28;20250;-72
2021/10/01 01:58:30;;;;;;;2.28;1.50;;;;;;;12.72;95.84;101943.53;6352966;28;20230;-72
2021/10/01 02:01:56;;;;;;;5.80;1.42;;;;;;;12.78;94.64;101948.19;6318307;28;20265;-72
2021/10/01 02:05:04;;;;;;;4.05;1.33;;;;;;;12.70;94.02;101940.16;6318126;28;20203;-72
2021/10/01 02:08:11;;;;;;;2.90;1.20;;;;;;;12.84;92.85;101947.41;6336939;28;20190;-72
2021/10/01 02:11:18;;;;;;;1.55;1.10;;;;;;;12.78;93.83;101943.56;6318324;28;20208;-72
2021/10/01 02:14:26;;;;;;;1.50;1.38;;;;;;;12.62;93.71;101937.59;6318292;28;20404;-72
2021/10/01 02:17:33;;;;;;;2.65;1.02;;;;;;;12.54;94.45;101942.19;6318160;28;20375;-72
2021/10/01 02:20:40;;;;;;;3.80;1.30;;;;;;;12.64;93.66;101941.81;6318691;28;20203;-72
2021/10/01 02:23:44;;;;;;;3.55;1.17;;;;;;;12.63;94.47;101942.03;6318918;28;20230;-72
2021/10/01 02:26:56;;;;;;;5.45;1.10;;;;;;;12.56;94.25;101951.03;6341339;28;20187;-72
2021/10/01 02:30:07;;;;;;;5.85;1.40;;;;;;;12.67;93.94;101943.28;6323469;28;20266;-72
2021/10/01 02:33:16;;;;;;;3.08;1.50;;;;;;;12.62;94.83;101948.53;6322778;28;20198;-72
2021/10/01 02:36:22;;;;;;;3.72;1.00;;;;;;;12.57;94.13;101951.91;6355417;28;20444;-72
2021/10/01 02:39:26;;;;;;;5.20;1.25;;;;;;;12.58;93.88;101943.47;6322710;28;20205;-72
2021/10/01 02:42:31;;;;;;;7.45;1.40;;;;;;;12.63;92.41;101955.72;6322492;28;20442;-72
2021/10/01 02:45:35;;;;;;;2.92;1.08;;;;;;;12.71;92.50;101959.09;6355552;28;20202;-72
2021/10/01 02:48:39;;;;;;;4.70;1.17;;;;;;;12.57;93.54;101950.00;6339948;28;20497;-72
2021/10/01 02:51:58;;;;;;;1.20;1.10;;;;;;;12.70;91.00;101945.63;6322738;28;20257;-72
2021/10/01 02:55:08;;;;;;;2.58;1.50;;;;;;;12.61;91.32;101952.34;6340841;28;20223;-72
2021/10/01 02:58:17;;;;;;;1.70;1.15;;;;;;;12.64;90.85;101968.34;6322275;28;20494;-72
2021/10/01 03:01:24;;;;;;;1.60;1.08;;;;;;;12.53;91.17;101956.91;6322777;28;20281;-72
2021/10/01 03:04:29;;;;;;;3.25;1.10;;;;;;;12.51;91.56;101961.75;6321972;28;20230;-72
2021/10/01 03:07:36;;;;;;;1.40;1.10;;;;;;;12.26;92.69;101955.09;6321109;28;20369;-72
2021/10/01 03:10:44;;;;;;;3.70;1.38;;;;;;;12.42;90.43;101959.41;6322261;28;20265;-72
2021/10/01 03:13:50;;;;;;;1.33;1.23;;;;;;;12.23;92.03;101977.38;6322140;28;20206;-72
2021/10/01 03:16:57;;;;;;;2.97;1.38;;;;;;;12.19;92.06;101976.09;6322489;28;20223;-72
2021/10/01 03:20:02;;;;;;;3.40;1.42;;;;;;;12.21;92.07;101978.63;6321409;28;20229;-72
2021/10/01 03:23:09;;;;;;;6.35;1.40;;;;;;;12.14;92.02;101989.53;6365058;27;20400;-72
2021/10/01 03:26:15;;;;;;;4.82;1.60;;;;;;;12.09;91.99;101997.50;6372690;27;20205;-72
2021/10/01 03:29:20;;;;;;;1.65;1.13;;;;;;;12.03;92.35;101992.81;6371879;27;20517;-72
2021/10/01 03:32:25;;;;;;;1.83;1.30;;;;;;;12.10;92.06;102001.91;6405681;27;20219;-72
2021/10/01 03:35:30;;;;;;;3.47;1.40;;;;;;;12.03;92.33;102003.75;6371233;27;20202;-72
2021/10/01 03:38:36;;;;;;;1.48;1.38;;;;;;;12.17;91.54;101994.59;6389718;27;20469;-72
2021/10/01 03:41:42;;;;;;;1.40;1.23;;;;;;;11.99;91.84;101996.16;6371553;27;20228;-72
2021/10/01 03:44:48;;;;;;;3.70;1.80;;;;;;;11.92;90.63;102007.03;6372168;27;20203;-72
2021/10/01 03:47:54;;;;;;;2.47;1.55;;;;;;;12.01;90.61;102005.84;6371496;27;20232;-72
2021/10/01 03:50:58;;;;;;;5.95;1.58;;;;;;;11.92;92.00;102012.50;6406338;27;20275;-72
2021/10/01 03:54:05;;;;;;;6.35;1.90;;;;;;;11.93;90.94;102011.47;6371468;27;20197;-72
2021/10/01 03:57:12;;;;;;;2.53;1.67;;;;;;;11.85;92.38;102017.06;6371513;27;20521;-72
2021/10/01 04:00:17;;;;;;;5.18;1.88;;;;;;;11.84;92.24;102020.81;6389142;27;20493;-72
2021/10/01 04:03:22;;;;;;;3.45;1.98;;;;;;;11.78;92.08;102016.16;6389087;27;20497;-72
2021/10/01 04:06:29;;;;;;;4.32;1.60;;;;;;;11.68;91.96;102015.63;6370904;27;20236;-72
2021/10/01 04:09:35;;;;;;;3.90;1.75;;;;;;;11.81;91.99;102032.19;6404505;27;20197;-72
2021/10/01 04:12:45;;;;;;;6.53;2.13;;;;;;;11.80;92.82;102022.28;6371664;27;20197;-72
2021/10/01 04:15:59;;;;;;;8.98;2.28;;;;;;;11.83;93.57;102030.09;6370236;27;20232;-72
2021/10/01 04:19:04;;;;;;;5.40;2.15;;;;;;;11.77;93.87;102022.66;6404457;27;20266;-73
2021/10/01 04:22:10;;;;;;;9.82;2.20;;;;;;;11.90;92.77;102025.53;6370617;27;20225;-73
2021/10/01 04:25:47;;;;;;;6.20;2.10;;;;;;;11.83;93.27;102024.63;6389196;27;20260;-73
2021/10/01 04:28:53;;;;;;;5.68;1.77;;;;;;;11.87;93.67;102021.28;6370660;27;20444;-73
2021/10/01 04:31:58;;;;;;;2.22;1.88;;;;;;;11.91;93.59;102019.03;6370577;27;20569;-73
2021/10/01 04:35:06;;;;;;;8.57;2.22;;;;;;;11.86;94.34;102024.25;6371069;27;20197;-74
2021/10/01 04:38:14;;;;;;;2.30;1.90;;;;;;;11.94;93.55;102021.34;6370798;27;20216;-73
2021/10/01 04:41:20;;;;;;;8.32;1.83;;;;;;;11.91;93.74;102027.22;6370191;27;20236;-73
2021/10/01 04:44:24;;;;;;;8.45;2.10;;;;;;;12.01;93.92;102027.72;6370257;27;20229;-73
2021/10/01 04:47:29;;;;;;;4.85;1.90;;;;;;;12.01;93.14;102016.78;6404277;27;20201;-73
2021/10/01 04:50:34;;;;;;;7.32;1.77;;;;;;;12.09;93.72;102033.06;6388988;27;20227;-73
2021/10/01 04:53:39;;;;;;;7.13;1.88;;;;;;;12.10;92.74;102032.00;6369786;27;20197;-73
2021/10/01 04:56:45;;;;;;;4.00;1.70;;;;;;;12.04;93.79;102042.91;6369964;27;20561;-73
2021/10/01 04:59:50;;;;;;;7.18;2.10;;;;;;;12.00;94.06;102042.44;6369696;27;20201;-73
2021/10/01 05:03:20;;;;;;;7.15;2.15;;;;;;;12.03;94.55;102036.56;6357986;27;20260;-74
2021/10/01 05:06:45;;;;;;;7.75;1.90;;;;;;;12.09;93.93;102035.81;6387433;27;20201;-73
2021/10/01 05:10:21;;;;;;;6.72;2.05;;;;;;;12.12;94.55;102040.84;6388983;27;20188;-73
2021/10/01 05:13:45;;;;;;;5.88;2.00;;;;;;;12.16;93.75;102050.38;6387431;27;20292;-73
2021/10/01 05:17:22;;;;;;;2.38;1.85;;;;;;;12.22;93.30;102044.09;6353119;27;20221;-72
2021/10/01 05:20:46;;;;;;;5.60;1.90;;;;;;;12.15;93.89;102051.41;6374185;27;20198;-73
2021/10/01 05:23:57;;;;;;;8.18;1.92;;;;;;;12.43;91.56;102054.13;6335704;28;20208;-74
2021/10/01 05:27:01;;;;;;;5.97;1.60;;;;;;;12.37;92.71;102055.81;6361895;28;20224;-72
2021/10/01 05:30:08;;;;;;;2.47;1.90;;;;;;;12.42;91.49;102061.53;6362974;28;20201;-73
2021/10/01 05:33:13;;;;;;;6.47;1.80;;;;;;;12.45;91.59;102073.97;6360602;28;20197;-73
2021/10/01 05:36:20;;;;;;;7.90;2.33;;;;;;;12.54;90.88;102073.59;6361659;28;20184;-72
2021/10/01 05:39:25;;;;;;;4.05;2.30;;;;;;;12.46;92.16;102081.13;6362309;28;20210;-72
2021/10/01 05:42:29;;;;;;;4.85;1.83;;;;;;;12.50;90.98;102077.81;6361498;28;20182;-72
2021/10/01 05:45:34;;;;;;;3.97;1.90;;;;;;;12.60;90.37;102076.59;6362336;28;20182;-72
2021/10/01 05:49:00;;;;;;;7.80;2.00;;;;;;;12.57;90.94;102066.88;6362231;28;20231;-72
2021/10/01 05:52:37;;;;;;;5.30;1.98;;;;;;;12.73;89.51;102083.00;6361709;28;20281;-72
2021/10/01 05:56:13;;;;;;;5.78;1.67;;;;;;;12.56;90.52;102076.97;6361326;28;20424;-72
2021/10/01 05:59:39;;;;;;;3.13;1.60;;;;;;;12.56;91.05;102093.41;6365628;28;20236;-72
2021/10/01 06:02:45;;;;;;;6.43;1.90;;;;;;;12.75;89.41;102107.44;6367665;28;20182;-72
2021/10/01 06:05:49;;;;;;;6.72;2.00;;;;;;;12.75;88.86;102096.47;6366581;28;20271;-72
2021/10/01 06:08:53;;;;;;;5.15;1.73;;;;;;;12.55;90.16;102090.88;6366304;28;20192;-72
2021/10/01 06:11:58;;;;;;;2.08;1.60;;;;;;;12.55;90.70;102101.84;6366796;28;20189;-72
2021/10/01 06:15:03;;;;;;;5.18;2.08;;;;;;;12.46;91.08;102109.34;6367073;28;20214;-72
2021/10/01 06:18:12;;;;;;;6.85;1.70;;;;;;;12.49;90.97;102119.91;6365660;28;20521;-72
2021/10/01 06:21:16;;;;;;;6.65;2.10;;;;;;;12.55;90.52;102124.59;6372074;27;20408;-72
2021/10/01 06:24:20;;;;;;;5.82;1.90;;;;;;;12.57;90.35;102127.97;6390984;27;20375;-72
2021/10/01 06:27:25;;;;;;;5.88;1.90;;;;;;;12.64;90.40;102121.69;6392573;27;20186;-72
2021/10/01 06:30:29;;;;;;;8.48;1.95;;;;;;;12.74;89.57;102127.63;6392126;27;20258;-72
2021/10/01 06:33:35;;;;;;;7.13;2.05;;;;;;;12.66;90.56;102130.56;6391989;27;20219;-72
2021/10/01 06:36:40;;;;;;;5.43;1.90;;;;;;;12.69;90.49;102124.66;6391443;27;20193;-72
2021/10/01 06:39:44;;;;;;;7.10;1.92;;;;;;;12.86;89.74;102126.06;6391687;27;20217;-72
2021/10/01 06:42:50;;;;;;;3.17;1.67;;;;;;;13.01;89.08;102129.53;6392177;27;20212;-73
2021/10/01 06:45:56;;;;;;;7.65;1.92;;;;;;;13.04;89.66;102129.13;6390749;27;20182;-72
2021/10/01 06:49:15;;;;;;;13.30;2.45;;;;;;;13.12;89.47;102127.06;6390692;27;20249;-72
2021/10/01 06:52:41;;;;;;;8.40;1.95;;;;;;;13.07;88.70;102135.06;6391539;27;20182;-72
2021/10/01 07:23:14;;;;;;;5.93;2.00;;;;;;;13.25;87.65;102159.19;6390590;27;20443;-73
2021/10/01 08:20:23;;;;;;;7.40;2.00;;;;;;;13.86;80.02;102118.09;6388854;27;20256;-73
2021/10/01 08:23:28;;;;;;;8.95;1.98;;;;;;;13.97;79.38;102125.72;6387196;27;20224;-72
2021/10/01 08:26:32;;;;;;;3.00;1.95;;;;;;;13.95;78.70;102127.81;6389338;27;20185;-72
2021/10/01 08:29:38;;;;;;;7.72;2.17;;;;;;;13.88;78.24;102121.47;6389574;27;20192;-72
2021/10/01 08:32:42;;;;;;;5.43;1.92;;;;;;;13.84;78.46;102109.22;6388420;27;20492;-73
2021/10/01 08:35:47;;;;;;;6.82;1.98;;;;;;;13.88;79.21;102118.72;6389128;27;20182;-72
2021/10/01 08:38:52;;;;;;;9.45;1.85;;;;;;;13.94;76.99;102131.63;6389361;27;20272;-73
2021/10/01 08:41:57;;;;;;;9.27;1.70;;;;;;;13.91;76.95;102132.03;6388962;27;20219;-72
2021/10/01 08:45:03;;;;;;;7.60;1.77;;;;;;;13.97;77.79;102121.06;6388973;27;20181;-73
2021/10/01 08:48:13;;;;;;;4.03;1.83;;;;;;;13.98;76.70;102127.41;6387862;27;20481;-72
2021/10/01 08:51:20;;;;;;;13.40;2.45;;;;;;;14.09;77.66;102135.88;6387719;27;20379;-72
2021/10/01 08:54:25;;;;;;;5.75;2.03;;;;;;;13.96;78.55;102122.13;6388556;27;20307;-73
2021/10/01 08:57:30;;;;;;;7.75;1.80;;;;;;;14.08;77.47;102127.84;6388962;27;20196;-72
2021/10/01 09:00:36;;;;;;;7.82;1.98;;;;;;;14.12;78.34;102131.88;6387585;27;20504;-73
2021/10/01 09:03:41;;;;;;;2.72;1.65;;;;;;;14.09;78.23;102133.13;6388569;27;20182;-73
2021/10/01 09:06:48;;;;;;;3.45;1.80;;;;;;;14.14;78.50;102132.50;6387490;27;20181;-73
2021/10/01 09:09:56;;;;;;;4.15;1.95;;;;;;;14.21;78.42;102116.88;6388466;27;20223;-73
2021/10/01 09:13:01;;;;;;;3.15;1.92;;;;;;;14.20;77.41;102123.44;6388662;27;20182;-73
2021/10/01 09:16:09;;;;;;;6.82;2.30;;;;;;;14.20;77.20;102126.19;6388386;27;20240;-73
2021/10/01 09:19:14;;;;;;;3.75;1.63;;;;;;;14.28;76.08;102117.72;6387319;27;20376;-73
2021/10/01 09:22:27;;;;;;;11.20;2.40;;;;;;;14.27;76.09;102116.03;6368910;27;20233;-73
2021/10/01 09:25:31;;;;;;;1.80;1.70;;;;;;;14.26;76.21;102114.34;6387039;27;20436;-73
2021/10/01 09:28:49;;;;;;;12.40;2.10;;;;;;;14.30;77.15;102118.38;6386995;27;20405;-73
2021/10/01 09:31:56;;;;;;;11.13;2.40;;;;;;;14.33;78.20;102109.72;6388482;28;20182;-73
2021/10/01 09:35:10;;;;;;;8.45;2.50;;;;;;;14.43;75.87;102102.75;6387856;27;20182;-73
2021/10/01 09:38:20;;;;;;;11.45;2.35;;;;;;;14.45;75.58;102124.53;6387782;28;20257;-73
2021/10/01 09:41:28;;;;;;;10.50;2.63;;;;;;;14.37;75.78;102111.00;6387331;28;20254;-74
2021/10/01 09:44:32;;;;;;;7.40;2.38;;;;;;;14.44;75.41;102117.34;6388386;28;20182;-73
2021/10/01 09:47:42;;;;;;;6.40;2.15;;;;;;;14.51;75.52;102111.84;6387336;28;20503;-73
2021/10/01 09:50:46;;;;;;;12.82;2.38;;;;;;;14.51;74.53;102115.41;6386487;28;20186;-73
2021/10/01 09:53:52;;;;;;;18.73;2.17;;;;;;;14.51;75.86;102104.44;6387882;28;20181;-73
2021/10/01 09:57:01;;;;;;;8.95;2.30;;;;;;;14.57;76.12;102106.34;6388906;28;20222;-73
2021/10/01 10:00:07;;;;;;;13.57;2.47;;;;;;;14.47;75.38;102116.06;6387964;28;20216;-73
2021/10/01 10:03:30;;;;;;;15.80;2.70;;;;;;;14.59;75.54;102109.72;6387190;28;20189;-73
2021/10/01 10:06:34;;;;;;;7.32;2.80;;;;;;;14.51;74.82;102101.69;6387795;28;20182;-73
2021/10/01 10:09:40;;;;;;;5.60;2.15;;;;;;;14.46;76.29;102093.25;6387749;28;20189;-73
2021/10/01 10:12:44;;;;;;;6.30;2.33;;;;;;;14.61;75.45;102106.78;6387818;28;20182;-73
2021/10/01 10:16:07;;;;;;;6.97;2.40;;;;;;;14.71;75.48;102110.78;6387674;28;20186;-73
2021/10/01 10:19:20;;;;;;;6.55;2.10;;;;;;;14.67;75.50;102090.28;6387882;28;20204;-73
2021/10/01 10:22:26;;;;;;;7.43;2.20;;;;;;;14.61;75.73;102096.59;6387358;28;20390;-73
2021/10/01 10:25:48;;;;;;;4.03;2.00;;;;;;;14.56;75.10;102093.66;6387781;28;20182;-73
2021/10/01 10:28:55;;;;;;;10.60;3.08;;;;;;;14.56;73.72;102099.16;6385975;28;20555;-73
2021/10/01 10:31:59;;;;;;;6.70;2.35;;;;;;;14.69;73.01;102098.31;6387674;28;20192;-73
2021/10/01 10:35:07;;;;;;;8.00;2.30;;;;;;;14.78;74.80;102097.88;6387262;28;20231;-73
2021/10/01 10:38:32;;;;;;;5.40;2.78;;;;;;;14.75;73.87;102095.53;6387684;28;20182;-73
2021/10/01 10:41:37;;;;;;;6.07;2.03;;;;;;;14.85;72.77;102115.19;6386480;28;20206;-73
2021/10/01 10:44:44;;;;;;;12.02;2.28;;;;;;;14.77;72.92;102096.16;6387726;27;20253;-73
2021/10/01 10:47:57;;;;;;;6.18;2.53;;;;;;;14.84;73.44;102097.00;6390692;27;20473;-73
2021/10/01 10:51:02;;;;;;;9.18;2.45;;;;;;;14.78;71.94;102097.88;6390738;27;20306;-73
2021/10/01 10:54:08;;;;;;;6.60;2.92;;;;;;;14.84;72.52;102091.50;6392017;27;20219;-73
2021/10/01 10:57:29;;;;;;;5.75;2.60;;;;;;;14.88;70.92;102087.28;6390560;27;20518;-72
2021/10/01 11:00:40;;;;;;;11.88;2.25;;;;;;;14.81;70.36;102086.47;6391684;27;20237;-72
2021/10/01 11:03:45;;;;;;;7.03;2.25;;;;;;;14.88;71.49;102090.03;6390430;27;20462;-72
2021/10/01 11:06:55;;;;;;;6.90;2.20;;;;;;;14.90;71.81;102071.41;6390434;27;20213;-72
2021/10/01 11:10:32;;;;;;;11.35;2.03;;;;;;;14.87;69.71;102079.22;6391529;27;20193;-73
2021/10/01 11:13:36;;;;;;;6.95;2.33;;;;;;;14.93;70.62;102073.72;6391392;27;20203;-72
2021/10/01 11:16:42;;;;;;;5.70;2.08;;;;;;;15.07;70.98;102078.09;6391106;27;20185;-72
2021/10/01 11:19:55;;;;;;;5.63;1.73;;;;;;;15.13;68.30;102072.81;6390128;27;20273;-73
2021/10/01 11:23:13;;;;;;;8.10;2.10;;;;;;;15.02;68.48;102086.16;6391536;27;20233;-73
2021/10/01 11:26:25;;;;;;;8.20;2.67;;;;;;;15.01;67.75;102067.16;6390211;27;20462;-72
2021/10/01 11:29:30;;;;;;;3.53;2.00;;;;;;;15.11;69.41;102080.44;6390353;27;20294;-73
2021/10/01 11:32:34;;;;;;;14.23;2.35;;;;;;;15.17;68.09;102080.44;6391063;27;20219;-72
2021/10/01 11:35:46;;;;;;;9.23;2.10;;;;;;;15.26;67.44;102081.84;6391014;27;20181;-73
2021/10/01 11:39:03;;;;;;;9.02;2.10;;;;;;;15.22;67.59;102082.50;6390467;27;20182;-73
2021/10/01 11:42:09;;;;;;;4.05;1.60;;;;;;;15.24;68.28;102086.72;6390949;27;20281;-72
2021/10/01 11:45:16;;;;;;;8.20;1.95;;;;;;;15.26;66.63;102072.75;6389703;27;20204;-73
2021/10/01 11:48:20;;;;;;;8.13;2.35;;;;;;;15.14;67.18;102063.50;6390304;27;20248;-73
2021/10/01 11:51:26;;;;;;;5.70;2.05;;;;;;;15.15;66.81;102065.22;6390725;27;20200;-73
2021/10/01 11:54:31;;;;;;;12.05;2.22;;;;;;;15.03;67.94;102074.13;6389222;27;20203;-73
2021/10/01 11:57:38;;;;;;;2.90;1.98;;;;;;;15.11;67.06;102075.78;6390043;27;20181;-73
2021/10/01 12:00:42;;;;;;;5.88;2.28;;;;;;;15.13;68.13;102053.56;6390475;27;20215;-76
2021/10/01 12:03:51;;;;;;;4.95;2.20;;;;;;;15.07;66.84;102069.88;6406230;27;20208;-72
2021/10/01 12:07:01;;;;;;;8.95;2.00;;;;;;;15.15;67.60;102059.72;6389400;27;20260;-72
2021/10/01 12:10:09;;;;;;;9.45;1.88;;;;;;;15.14;67.29;102041.53;6389291;27;20182;-73
2021/10/01 12:13:22;;;;;;;6.97;1.88;;;;;;;15.11;65.92;102055.69;6388706;27;20504;-73
2021/10/01 12:16:27;;;;;;;5.65;2.25;;;;;;;15.17;66.55;102044.69;6388673;27;20181;-72
2021/10/01 12:19:32;;;;;;;6.28;1.70;;;;;;;15.01;65.63;102054.25;6389922;27;20258;-72
2021/10/01 12:22:37;;;;;;;3.92;1.40;;;;;;;15.00;65.71;102041.56;6389084;27;20248;-73
2021/10/01 12:25:42;;;;;;;6.95;2.00;;;;;;;15.11;65.14;102052.94;6389722;27;20185;-73
2021/10/01 12:29:12;;;;;;;3.03;1.90;;;;;;;14.92;65.14;102052.78;6389156;27;20188;-73
2021/10/01 12:32:19;;;;;;;8.52;1.98;;;;;;;14.95;65.26;102055.13;6388361;27;20407;-73
2021/10/01 12:35:23;;;;;;;2.45;1.55;;;;;;;14.97;65.17;102061.22;6389547;27;20181;-72
2021/10/01 12:38:28;;;;;;;9.40;2.13;;;;;;;14.96;66.02;102051.31;6389060;27;20188;-73
2021/10/01 12:41:34;;;;;;;9.63;2.22;;;;;;;14.95;67.05;102060.63;6389060;27;20205;-73
2021/10/01 12:44:40;;;;;;;6.28;1.67;;;;;;;14.96;66.26;102050.47;6388178;27;20189;-73
2021/10/01 12:47:48;;;;;;;3.85;1.85;;;;;;;14.94;67.49;102045.22;6389526;27;20230;-73
2021/10/01 12:50:53;;;;;;;1.60;1.60;;;;;;;14.93;67.28;102040.75;6389196;27;20185;-72
2021/10/01 12:53:57;;;;;;;3.78;1.77;;;;;;;15.01;67.17;102026.78;6388158;27;20235;-72
2021/10/01 12:57:11;;;;;;;2.72;2.00;;;;;;;15.00;66.56;102030.56;6387700;27;20185;-73
2021/10/01 13:00:18;;;;;;;5.53;2.00;;;;;;;14.88;67.23;102014.97;6388974;27;20231;-73
2021/10/01 13:03:22;;;;;;;5.97;2.13;;;;;;;14.92;66.74;102028.06;6387489;27;20277;-72
2021/10/01 13:06:30;;;;;;;2.75;2.05;;;;;;;14.99;66.54;102023.41;6388007;27;20258;-72
2021/10/01 13:09:40;;;;;;;4.47;1.95;;;;;;;14.87;67.99;102025.13;6386888;27;20380;-73
2021/10/01 13:12:51;;;;;;;2.38;1.70;;;;;;;14.81;67.88;102020.50;6388698;27;20191;-73
2021/10/01 13:15:56;;;;;;;3.13;1.73;;;;;;;14.83;68.09;102015.63;6388463;27;20226;-72
2021/10/01 13:19:11;;;;;;;4.95;1.90;;;;;;;14.83;68.39;102018.38;6388027;27;20373;-72
2021/10/01 13:22:16;;;;;;;3.20;1.73;;;;;;;14.87;68.16;102025.13;6387892;27;20237;-72
2021/10/01 13:25:24;;;;;;;2.38;1.55;;;;;;;14.85;68.67;101999.78;6388265;28;20231;-72
2021/10/01 13:28:32;;;;;;;5.35;1.98;;;;;;;14.73;68.63;102001.53;6388472;27;20182;-74
2021/10/01 13:31:42;;;;;;;7.72;1.90;;;;;;;14.74;67.90;102003.19;6388002;28;20217;-72
2021/10/01 13:34:46;;;;;;;6.05;1.80;;;;;;;14.79;67.52;102011.63;6387900;28;20186;-72
2021/10/01 13:37:51;;;;;;;5.20;2.10;;;;;;;14.79;66.95;102006.13;6387905;28;20217;-73
2021/10/01 13:40:55;;;;;;;11.23;1.70;;;;;;;14.88;67.18;101996.59;6388186;28;20326;-73
2021/10/01 13:44:01;;;;;;;9.57;1.80;;;;;;;14.77;67.83;102013.75;6387901;28;20188;-72
2021/10/01 13:47:06;;;;;;;2.88;2.08;;;;;;;14.63;68.08;102006.63;6387240;28;20276;-72
2021/10/01 13:50:13;;;;;;;5.95;1.85;;;;;;;14.70;68.04;101988.22;6387479;28;20188;-72
2021/10/01 13:53:17;;;;;;;8.13;2.15;;;;;;;14.62;68.31;101987.59;6386850;28;20238;-71
2021/10/01 13:56:21;;;;;;;2.63;1.80;;;;;;;14.63;68.71;102003.88;6387747;28;20181;-71
2021/10/01 13:59:26;;;;;;;4.35;1.80;;;;;;;14.86;67.80;101995.97;6386812;28;20204;-72
2021/10/01 14:02:34;;;;;;;4.80;2.15;;;;;;;14.70;68.98;101999.19;6386664;28;20464;-72
2021/10/01 14:05:38;;;;;;;3.58;1.73;;;;;;;14.73;68.93;102000.66;6386656;28;20448;-72
2021/10/01 14:08:43;;;;;;;5.75;1.90;;;;;;;14.75;69.04;101999.38;6387417;28;20244;-72
2021/10/01 14:12:08;;;;;;;6.15;2.00;;;;;;;14.77;69.11;101994.50;6386561;28;20258;-72
2021/10/01 14:15:15;;;;;;;4.20;1.80;;;;;;;14.71;69.09;101998.16;6387605;28;20209;-71
2021/10/01 14:18:19;;;;;;;7.10;2.00;;;;;;;14.70;69.53;101990.97;6387209;28;20182;-71
2021/10/01 14:21:23;;;;;;;2.90;1.80;;;;;;;14.75;68.91;101991.16;6388969;27;20248;-72
2021/10/01 14:24:27;;;;;;;6.65;1.90;;;;;;;14.74;69.23;101991.38;6392661;27;20212;-72
2021/10/01 14:27:32;;;;;;;1.73;1.58;;;;;;;14.59;69.66;101983.38;6391227;27;20412;-71
2021/10/01 14:30:38;;;;;;;3.33;1.83;;;;;;;14.70;69.58;101996.44;6391078;27;20182;-72
2021/10/01 14:33:43;;;;;;;2.50;1.92;;;;;;;14.72;69.41;101998.97;6392483;27;20192;-72
2021/10/01 14:36:47;;;;;;;9.82;2.08;;;;;;;14.62;70.24;101977.47;6391385;27;20523;-72
2021/10/01 14:39:51;;;;;;;9.75;1.92;;;;;;;14.69;69.66;101989.25;6391069;27;20181;-73
2021/10/01 14:42:55;;;;;;;8.52;1.98;;;;;;;14.63;70.31;101990.13;6391829;27;20213;-73
2021/10/01 14:46:02;;;;;;;9.30;1.80;;;;;;;14.61;70.97;101992.22;6390857;27;20181;-73
2021/10/01 14:49:07;;;;;;;4.15;1.90;;;;;;;14.52;72.43;101982.56;6392153;27;20182;-73
2021/10/01 14:52:12;;;;;;;3.97;1.83;;;;;;;14.51;72.24;101999.25;6391261;27;20238;-73
2021/10/01 14:55:17;;;;;;;10.98;2.30;;;;;;;14.64;71.66;101991.81;6391970;27;20209;-73
2021/10/01 14:58:21;;;;;;;4.85;1.83;;;;;;;14.57;73.76;101991.00;6391956;27;20220;-73
2021/10/01 15:01:27;;;;;;;5.72;2.00;;;;;;;14.53;75.59;101998.00;6390235;27;20181;-72
2021/10/01 15:04:31;;;;;;;9.30;2.30;;;;;;;14.42;76.17;101987.66;6391297;27;20213;-72
2021/10/01 15:07:36;;;;;;;3.72;2.00;;;;;;;14.25;78.18;101994.63;6390264;27;20488;-72
2021/10/01 15:10:40;;;;;;;7.80;2.15;;;;;;;14.21;80.64;102005.19;6390563;27;20277;-73
2021/10/01 15:13:44;;;;;;;6.53;2.15;;;;;;;14.01;81.02;102007.09;6389979;27;20434;-72
2021/10/01 15:16:50;;;;;;;8.73;2.13;;;;;;;14.03;82.63;102004.13;6391351;27;20181;-73
2021/10/01 15:19:54;;;;;;;7.35;2.08;;;;;;;13.92;84.87;102007.53;6390909;27;20181;-73
2021/10/01 15:22:58;;;;;;;7.85;2.22;;;;;;;13.79;85.14;102002.84;6390854;27;20264;-72
2021/10/01 15:26:04;;;;;;;23.77;14.38;;;;;;;13.95;84.34;102001.59;6391499;27;20188;-73
2021/10/01 15:29:08;;;;;;;5.95;3.08;;;;;;;13.73;86.89;102015.53;6390111;27;20484;-73
2021/10/01 15:32:15;;;;;;;7.35;2.83;;;;;;;13.79;87.14;101995.47;6389947;27;20182;-72
2021/10/01 15:35:22;;;;;;;6.35;2.38;;;;;;;13.80;86.99;101988.94;6390228;27;20409;-72
2021/10/01 15:38:26;;;;;;;4.07;2.67;;;;;;;13.76;86.51;101998.63;6391408;27;20258;-73
2021/10/01 15:41:31;;;;;;;6.63;4.63;;;;;;;13.85;85.28;102003.91;6391913;27;20218;-72
2021/10/01 15:44:36;;;;;;;9.82;3.22;;;;;;;13.88;85.17;102000.75;6391021;27;20209;-72
2021/10/01 15:47:42;;;;;;;9.23;2.40;;;;;;;13.86;83.17;101997.38;6390543;27;20182;-72
2021/10/01 15:50:46;;;;;;;9.68;5.80;;;;;;;13.91;83.58;101989.38;6389397;27;20409;-72
2021/10/01 15:53:50;;;;;;;12.63;7.85;;;;;;;13.98;81.92;101991.06;6390514;27;20303;-72
2021/10/01 15:56:54;;;;;;;4.03;2.45;;;;;;;13.91;82.51;101995.69;6391166;27;20181;-72